createdAt,value
2024-01-11T00:00:45.247Z,31.23
2024-01-11T00:04:54.142Z,29.67
2024-01-11T00:09:05.142Z,31.03
2024-01-11T00:13:13.884Z,30.63
2024-01-11T00:17:22.845Z,31.53
2024-01-11T00:21:31.701Z,31.83
2024-01-11T00:25:42.016Z,28.50
2024-01-11T00:29:50.746Z,33.37
2024-01-11T00:33:59.591Z,32.47
2024-01-11T00:38:08.399Z,31.27
2024-01-11T00:42:18.719Z,31.00
2024-01-11T00:46:27.457Z,30.77
2024-01-11T00:50:36.377Z,31.03
2024-01-11T00:54:45.241Z,31.73
2024-01-11T00:58:55.807Z,33.90
2024-01-11T01:03:04.774Z,33.13
2024-01-11T01:07:13.507Z,30.17
2024-01-11T01:11:22.397Z,29.30
2024-01-11T01:15:32.707Z,31.87
2024-01-11T01:19:41.605Z,33.30
2024-01-11T01:23:50.435Z,30.30
2024-01-11T01:28:00.554Z,30.47
2024-01-11T01:32:11.006Z,34.30
2024-01-11T01:36:19.932Z,33.93
2024-01-11T01:40:28.691Z,34.57
2024-01-11T01:44:37.695Z,35.70
2024-01-11T01:48:48.388Z,34.23
2024-01-11T01:52:58.266Z,31.30
2024-01-11T01:57:07.725Z,34.83
2024-01-11T02:01:17.574Z,33.53
2024-01-11T02:05:28.237Z,34.73
2024-01-11T02:09:38.040Z,35.37
2024-01-11T02:13:47.918Z,32.60
2024-01-11T02:17:56.833Z,32.57
2024-01-11T02:22:15.291Z,33.73
2024-01-11T02:26:25.595Z,31.47
2024-01-11T02:30:34.428Z,32.17
2024-01-11T02:34:43.731Z,36.67
2024-01-11T02:38:54.306Z,32.30
2024-01-11T02:43:12.181Z,30.43
2024-01-11T02:47:21.043Z,31.10
2024-01-11T02:51:29.873Z,34.30
2024-01-11T02:55:38.689Z,33.37
2024-01-11T02:59:48.926Z,33.67
2024-01-11T03:03:58.889Z,35.57
2024-01-11T03:08:08.110Z,34.27
2024-01-11T03:12:16.929Z,33.67
2024-01-11T03:16:27.195Z,34.13
2024-01-11T03:20:36.039Z,33.77
2024-01-11T03:24:44.793Z,37.57
2024-01-11T03:28:53.764Z,32.60
2024-01-11T03:33:04.245Z,32.17
2024-01-11T03:37:13.183Z,34.93
2024-01-11T03:41:22.014Z,30.27
2024-01-11T03:45:30.858Z,30.70
2024-01-11T03:49:41.319Z,31.73
2024-01-11T03:53:50.618Z,34.93
2024-01-11T03:57:59.561Z,34.57
2024-01-11T04:02:08.539Z,33.40
2024-01-11T04:06:23.889Z,33.53
2024-01-11T04:10:32.802Z,33.37
2024-01-11T04:14:42.462Z,30.67
2024-01-11T04:18:51.416Z,31.83
2024-01-11T04:23:01.827Z,31.67
2024-01-11T04:27:10.647Z,30.33
2024-01-11T04:31:19.605Z,31.03
2024-01-11T04:35:28.553Z,29.37
2024-01-11T04:39:38.883Z,29.57
2024-01-11T04:43:48.009Z,34.30
2024-01-11T04:47:57.112Z,30.43
2024-01-11T04:52:06.523Z,32.00
2024-01-11T04:56:18.216Z,31.40
2024-01-11T05:00:27.102Z,28.93
2024-01-11T05:04:35.890Z,28.50
2024-01-11T05:08:44.668Z,29.50
2024-01-11T05:12:54.929Z,28.03
2024-01-11T05:17:03.660Z,30.73
2024-01-11T05:21:12.502Z,31.27
2024-01-11T05:25:21.310Z,28.80
2024-01-11T05:29:31.596Z,32.33
2024-01-11T05:33:40.689Z,28.07
2024-01-11T05:37:49.653Z,30.40
2024-01-11T05:41:58.483Z,32.17
2024-01-11T05:46:09.332Z,27.77
2024-01-11T05:50:18.451Z,28.60
2024-01-11T05:54:29.506Z,29.23
2024-01-11T05:58:39.309Z,29.33
2024-01-11T06:02:49.696Z,31.67
2024-01-11T06:06:58.487Z,31.53
2024-01-11T06:11:07.710Z,31.30
2024-01-11T06:15:16.553Z,26.80
2024-01-11T06:19:27.381Z,29.37
2024-01-11T06:23:36.339Z,29.10
2024-01-11T06:27:46.181Z,26.37
2024-01-11T06:31:55.114Z,23.77
2024-01-11T06:36:05.936Z,27.30
2024-01-11T06:40:14.731Z,24.33
2024-01-11T06:44:23.582Z,26.30
2024-01-11T06:48:32.524Z,24.90
2024-01-11T06:52:42.983Z,26.40
2024-01-11T06:56:51.755Z,24.10
2024-01-11T07:01:00.620Z,25.20
2024-01-11T07:05:10.367Z,25.33
2024-01-11T07:09:20.643Z,25.13
2024-01-11T07:13:29.475Z,25.13
2024-01-11T07:17:38.375Z,24.90
2024-01-11T07:21:47.265Z,27.63
2024-01-11T07:25:57.642Z,26.60
2024-01-11T07:30:08.135Z,27.07
2024-01-11T07:34:17.126Z,24.83
2024-01-11T07:38:26.063Z,26.87
2024-01-11T07:42:36.340Z,26.50
2024-01-11T07:46:52.533Z,27.10
2024-01-11T07:51:03.525Z,23.70
2024-01-11T07:55:14.279Z,26.37
2024-01-11T07:59:24.697Z,24.97
2024-01-11T08:03:34.482Z,25.93
2024-01-11T08:07:44.759Z,27.53
2024-01-11T08:11:55.823Z,28.83
2024-01-11T08:16:11.062Z,28.13
2024-01-11T08:20:20.900Z,26.03
2024-01-11T08:24:29.964Z,27.03
2024-01-11T08:28:38.732Z,26.70
2024-01-11T08:32:49.186Z,25.30
2024-01-11T08:36:58.166Z,24.87
2024-01-11T08:41:07.791Z,24.43
2024-01-11T08:45:19.478Z,25.40
2024-01-11T08:49:29.917Z,24.17
2024-01-11T08:53:38.768Z,25.67
2024-01-11T08:57:47.665Z,23.23
2024-01-11T09:02:02.736Z,25.80
2024-01-11T09:06:21.100Z,26.10
2024-01-11T09:10:29.944Z,24.30
2024-01-11T09:14:38.954Z,24.20
2024-01-11T09:18:48.235Z,24.20
2024-01-11T09:22:58.611Z,24.93
2024-01-11T09:27:07.999Z,24.63
2024-01-11T09:31:16.957Z,25.57
2024-01-11T09:35:25.932Z,22.37
2024-01-11T09:39:36.245Z,25.17
2024-01-11T09:43:45.106Z,25.70
2024-01-11T09:47:54.486Z,22.67
2024-01-11T09:52:04.654Z,25.73
2024-01-11T09:56:14.970Z,24.40
2024-01-11T10:00:25.946Z,24.57
2024-01-11T10:04:34.819Z,22.70
2024-01-11T10:08:43.862Z,26.83
2024-01-11T10:12:54.096Z,23.93
2024-01-11T10:17:03.127Z,22.90
2024-01-11T10:21:12.297Z,23.80
2024-01-11T10:25:21.233Z,24.00
2024-01-11T10:29:33.473Z,22.43
2024-01-11T10:33:42.466Z,22.23
2024-01-11T10:37:56.019Z,23.30
2024-01-11T10:42:09.135Z,23.07
2024-01-11T10:46:23.585Z,23.97
2024-01-11T10:50:37.071Z,24.17
2024-01-11T10:54:46.111Z,23.63
2024-01-11T10:58:57.017Z,22.43
2024-01-11T11:03:09.560Z,22.37
2024-01-11T11:07:18.875Z,21.20
2024-01-11T11:11:28.356Z,22.17
2024-01-11T11:15:39.348Z,20.40
2024-01-11T11:19:49.845Z,18.83
2024-01-11T11:23:59.184Z,20.20
2024-01-11T11:28:08.517Z,19.27
2024-01-11T11:32:18.831Z,19.27
2024-01-11T11:36:33.347Z,18.67
2024-01-11T11:40:45.225Z,19.03
2024-01-11T11:44:59.136Z,19.30
2024-01-11T11:49:08.344Z,18.17
2024-01-11T11:53:19.608Z,19.20
2024-01-11T11:57:30.201Z,19.47
2024-01-11T12:01:39.955Z,20.30
2024-01-11T12:05:49.094Z,18.10
2024-01-11T12:09:59.587Z,20.00
2024-01-11T12:14:08.451Z,19.67
2024-01-11T12:18:17.549Z,18.30
2024-01-11T12:22:26.839Z,17.13
2024-01-11T12:26:37.745Z,18.13
2024-01-11T12:30:48.158Z,16.97
2024-01-11T12:34:57.488Z,17.53
2024-01-11T12:39:07.727Z,17.80
2024-01-11T12:43:18.623Z,17.03
2024-01-11T12:47:27.558Z,17.93
2024-01-11T12:51:39.113Z,20.33
2024-01-11T12:55:54.978Z,19.50
2024-01-11T13:00:15.152Z,17.53
2024-01-11T13:04:24.045Z,18.37
2024-01-11T13:08:33.070Z,16.07
2024-01-11T13:12:43.528Z,14.50
2024-01-11T13:16:54.881Z,15.57
2024-01-11T13:21:04.366Z,13.17
2024-01-11T13:25:13.441Z,14.43
2024-01-11T13:29:22.347Z,12.70
2024-01-11T13:33:32.667Z,12.93
2024-01-11T13:37:42.108Z,12.20
2024-01-11T13:41:52.007Z,15.83
2024-01-11T13:46:00.862Z,12.17
2024-01-11T13:50:12.268Z,12.43
2024-01-11T13:54:22.683Z,12.97
2024-01-11T13:58:31.853Z,12.73
2024-01-11T14:02:41.965Z,12.83
2024-01-11T14:06:54.297Z,11.57
2024-01-11T14:11:03.316Z,11.97
2024-01-11T14:15:14.613Z,10.80
2024-01-11T14:19:24.018Z,10.80
2024-01-11T14:23:34.425Z,11.03
2024-01-11T14:27:43.606Z,11.27
2024-01-11T14:31:53.445Z,11.67
2024-01-11T14:36:02.402Z,11.20
2024-01-11T14:40:13.920Z,13.10
2024-01-11T14:44:22.981Z,12.13
2024-01-11T14:48:34.062Z,12.50
2024-01-11T14:52:44.077Z,11.83
2024-01-11T14:56:54.619Z,12.97
2024-01-11T15:01:05.206Z,13.80
2024-01-11T15:05:14.272Z,11.63
2024-01-11T15:09:23.138Z,12.13
2024-01-11T15:13:35.105Z,10.93
2024-01-11T15:17:44.104Z,10.63
2024-01-11T15:21:54.037Z,10.37
2024-01-11T15:26:03.476Z,11.57
2024-01-11T15:30:15.265Z,10.37
2024-01-11T15:34:24.578Z,10.13
2024-01-11T15:38:33.583Z,9.53
2024-01-11T15:42:43.929Z,11.37
2024-01-11T15:46:54.243Z,11.50
2024-01-11T15:51:05.349Z,10.63
2024-01-11T15:55:15.335Z,11.27
2024-01-11T15:59:26.306Z,13.00
2024-01-11T16:03:37.996Z,12.20
2024-01-11T16:07:46.889Z,14.97
2024-01-11T16:12:02.232Z,13.97
2024-01-11T16:16:13.974Z,13.13
2024-01-11T16:20:24.477Z,12.47
2024-01-11T16:24:33.920Z,12.23
2024-01-11T16:28:43.060Z,16.17
2024-01-11T16:32:52.220Z,13.47
2024-01-11T16:37:02.776Z,11.80
2024-01-11T16:41:12.491Z,12.03
2024-01-11T16:45:21.442Z,13.07
2024-01-11T16:49:30.308Z,12.60
2024-01-11T16:53:44.091Z,15.57
2024-01-11T16:57:52.992Z,14.10
2024-01-11T17:02:01.816Z,16.23
2024-01-11T17:06:12.146Z,17.53
2024-01-11T17:10:22.523Z,15.77
2024-01-11T17:14:31.551Z,13.83
2024-01-11T17:18:40.544Z,17.77
2024-01-11T17:22:51.414Z,14.90
2024-01-11T17:27:06.881Z,17.43
2024-01-11T17:31:15.969Z,15.23
2024-01-11T17:35:25.036Z,19.07
2024-01-11T17:39:33.975Z,15.40
2024-01-11T17:43:49.221Z,17.00
2024-01-11T17:47:58.639Z,17.43
2024-01-11T17:52:08.378Z,19.90
2024-01-11T17:56:18.767Z,20.67
2024-01-11T18:00:31.372Z,19.57
2024-01-11T18:04:40.311Z,19.27
2024-01-11T18:08:50.075Z,21.50
2024-01-11T18:12:59.026Z,20.33
2024-01-11T18:17:09.856Z,22.03
2024-01-11T18:21:18.952Z,21.63
2024-01-11T18:25:27.819Z,20.00
2024-01-11T18:29:36.870Z,18.23
2024-01-11T18:33:48.374Z,17.83
2024-01-11T18:37:57.318Z,17.93
2024-01-11T18:42:07.917Z,17.90
2024-01-11T18:46:16.844Z,18.10
2024-01-11T18:50:27.150Z,20.37
2024-01-11T18:54:36.126Z,18.00
2024-01-11T18:58:44.994Z,18.73
2024-01-11T19:02:54.112Z,20.53
2024-01-11T19:07:04.938Z,20.47
2024-01-11T19:11:14.715Z,23.63
2024-01-11T19:15:24.225Z,22.60
2024-01-11T19:19:33.280Z,24.97
2024-01-11T19:23:43.852Z,22.83
2024-01-11T19:27:53.588Z,19.53
2024-01-11T19:32:02.924Z,22.97
2024-01-11T19:36:12.430Z,19.87
2024-01-11T19:40:22.759Z,21.80
2024-01-11T19:44:31.658Z,19.87
2024-01-11T19:48:40.602Z,22.33
2024-01-11T19:52:51.564Z,19.90
2024-01-11T19:57:02.568Z,21.27
2024-01-11T20:01:12.076Z,19.20
2024-01-11T20:05:20.962Z,22.23
2024-01-11T20:09:29.785Z,20.87
2024-01-11T20:13:40.643Z,22.30
2024-01-11T20:17:50.600Z,23.50
2024-01-11T20:22:00.393Z,23.10
2024-01-11T20:26:09.546Z,22.73
2024-01-11T20:30:20.060Z,24.07
2024-01-11T20:34:28.997Z,22.97
2024-01-11T20:38:38.173Z,23.50
2024-01-11T20:42:47.495Z,21.27
2024-01-11T20:46:58.813Z,22.10
2024-01-11T20:51:09.431Z,22.57
2024-01-11T20:55:18.891Z,22.00
2024-01-11T20:59:27.754Z,16.97
2024-01-11T21:03:40.683Z,21.03
2024-01-11T21:07:49.608Z,16.60
2024-01-11T21:11:59.467Z,17.90
2024-01-11T21:16:08.391Z,17.60
2024-01-11T21:20:18.878Z,17.87
2024-01-11T21:24:28.656Z,17.70
2024-01-11T21:28:37.566Z,20.47
2024-01-11T21:32:46.490Z,17.13
2024-01-11T21:36:56.932Z,16.87
2024-01-11T21:41:06.035Z,17.13
2024-01-11T21:45:15.086Z,15.57
2024-01-11T21:49:23.996Z,16.67
2024-01-11T21:53:36.317Z,16.33
2024-01-11T21:57:45.143Z,15.90
2024-01-11T22:01:54.119Z,14.50
2024-01-11T22:06:03.013Z,15.83
2024-01-11T22:10:13.548Z,17.93
2024-01-11T22:14:22.474Z,16.93
2024-01-11T22:18:31.600Z,15.77
2024-01-11T22:22:40.409Z,20.63
2024-01-11T22:26:50.753Z,10.77
2024-01-11T22:30:59.640Z,15.77
2024-01-11T22:35:09.380Z,15.00
2024-01-11T22:39:18.297Z,15.77
2024-01-11T22:43:29.008Z,13.07
2024-01-11T22:47:37.994Z,13.27
2024-01-11T22:51:46.962Z,14.03
2024-01-11T22:55:55.827Z,11.43
2024-01-11T23:00:22.267Z,13.77
2024-01-11T23:04:32.785Z,10.60
2024-01-11T23:08:41.723Z,13.23
2024-01-11T23:12:51.289Z,9.00
2024-01-11T23:17:01.646Z,10.67
2024-01-11T23:21:10.440Z,9.83
2024-01-11T23:25:19.275Z,10.67
2024-01-11T23:29:28.561Z,12.37
2024-01-11T23:33:39.338Z,13.73
2024-01-11T23:37:48.414Z,10.73
2024-01-11T23:41:57.346Z,11.37
2024-01-11T23:46:06.619Z,12.50
2024-01-11T23:50:18.711Z,9.37
2024-01-11T23:54:28.202Z,11.17
2024-01-11T23:58:37.030Z,9.20
